createdAt,value
2022-09-07T00:00:58.558Z,92.20
2022-09-07T00:03:26.017Z,92.20
2022-09-07T00:05:53.359Z,92.20
2022-09-07T00:08:24.827Z,92.00
2022-09-07T00:10:57.724Z,92.00
2022-09-07T00:13:28.596Z,92.20
2022-09-07T00:15:56.700Z,92.20
2022-09-07T00:18:24.443Z,92.30
2022-09-07T00:21:05.935Z,92.10
2022-09-07T00:23:35.852Z,92.20
2022-09-07T00:26:13.713Z,92.20
2022-09-07T00:28:41.785Z,92.10
2022-09-07T00:31:19.688Z,92.00
2022-09-07T00:33:49.223Z,92.10
2022-09-07T00:36:19.884Z,92.00
2022-09-07T00:38:47.613Z,92.00
2022-09-07T00:41:16.872Z,91.90
2022-09-07T00:43:47.929Z,91.90
2022-09-07T00:46:28.844Z,91.90
2022-09-07T00:49:01.701Z,91.90
2022-09-07T00:51:53.026Z,92.10
2022-09-07T00:54:46.194Z,92.10
2022-09-07T00:57:14.350Z,92.40
2022-09-07T00:59:47.752Z,92.40
2022-09-07T01:02:17.371Z,92.30
2022-09-07T01:04:51.842Z,92.30
2022-09-07T01:07:19.693Z,92.50
2022-09-07T01:09:48.222Z,92.60
2022-09-07T01:12:16.776Z,92.50
2022-09-07T01:14:50.680Z,92.60
2022-09-07T01:17:33.576Z,92.40
2022-09-07T01:20:35.997Z,92.40
2022-09-07T01:23:24.643Z,92.60
2022-09-07T01:26:29.759Z,92.50
2022-09-07T01:29:31.570Z,92.40
2022-09-07T01:32:08.580Z,92.30
2022-09-07T01:34:38.993Z,92.20
2022-09-07T01:37:51.994Z,92.30
2022-09-07T01:40:38.767Z,92.30
2022-09-07T01:43:48.035Z,92.50
2022-09-07T01:46:28.983Z,92.90
2022-09-07T01:49:21.034Z,93.30
2022-09-07T01:51:57.646Z,94.10
2022-09-07T01:54:33.231Z,94.20
2022-09-07T01:57:13.123Z,93.40
2022-09-07T01:59:50.856Z,93.00
2022-09-07T02:02:30.745Z,92.80
2022-09-07T02:05:33.454Z,92.60
2022-09-07T02:08:28.860Z,92.60
2022-09-07T02:11:04.579Z,92.50
2022-09-07T02:13:46.253Z,92.70
2022-09-07T02:16:27.348Z,92.90
2022-09-07T02:19:05.202Z,92.90
2022-09-07T02:21:40.329Z,93.00
2022-09-07T02:24:28.964Z,93.50
2022-09-07T02:26:59.377Z,93.30
2022-09-07T02:29:30.754Z,93.20
2022-09-07T02:31:58.395Z,93.20
2022-09-07T02:34:25.698Z,93.00
2022-09-07T02:36:54.852Z,93.00
2022-09-07T02:39:22.302Z,93.00
2022-09-07T02:41:49.793Z,93.50
2022-09-07T02:44:24.893Z,93.60
2022-09-07T02:47:10.704Z,93.60
2022-09-07T02:50:16.379Z,93.80
2022-09-07T02:53:27.891Z,94.50
2022-09-07T02:56:46.165Z,94.50
2022-09-07T03:00:05.653Z,94.50
2022-09-07T03:02:56.873Z,94.90
2022-09-07T03:05:53.122Z,94.90
2022-09-07T03:08:28.096Z,94.60
2022-09-07T03:10:58.379Z,94.10
2022-09-07T03:13:29.592Z,93.80
2022-09-07T03:15:57.543Z,93.60
2022-09-07T03:18:27.131Z,94.10
2022-09-07T03:20:55.533Z,94.10
2022-09-07T03:23:23.498Z,94.60
2022-09-07T03:25:51.289Z,94.40
2022-09-07T03:28:18.908Z,94.70
2022-09-07T03:30:49.223Z,94.60
2022-09-07T03:33:17.614Z,94.70
2022-09-07T03:36:01.247Z,94.90
2022-09-07T03:38:30.442Z,95.10
2022-09-07T03:41:04.217Z,95.20
2022-09-07T03:43:33.202Z,95.60
2022-09-07T03:46:04.971Z,95.60
2022-09-07T03:48:34.905Z,95.40
2022-09-07T03:51:06.390Z,95.50
2022-09-07T03:53:36.954Z,95.20
2022-09-07T03:56:11.502Z,95.00
2022-09-07T03:58:39.004Z,94.90
2022-09-07T04:01:13.665Z,95.10
2022-09-07T04:03:41.118Z,95.40
2022-09-07T04:06:09.861Z,95.40
2022-09-07T04:08:38.766Z,95.20
2022-09-07T04:11:09.822Z,94.60
2022-09-07T04:13:37.820Z,94.50
2022-09-07T04:16:21.098Z,94.10
2022-09-07T04:18:50.420Z,94.20
2022-09-07T04:21:18.447Z,94.10
2022-09-07T04:23:46.065Z,94.00
2022-09-07T04:26:30.255Z,94.10
2022-09-07T04:28:58.200Z,94.20
2022-09-07T04:31:25.968Z,94.60
2022-09-07T04:33:54.481Z,94.90
2022-09-07T04:36:24.013Z,94.60
2022-09-07T04:38:57.731Z,94.30
2022-09-07T04:41:25.453Z,94.20
2022-09-07T04:43:56.877Z,94.50
2022-09-07T04:46:30.477Z,94.50
2022-09-07T04:49:01.815Z,94.90
2022-09-07T04:51:32.108Z,94.90
2022-09-07T04:54:02.393Z,95.20
2022-09-07T04:56:30.997Z,95.10
2022-09-07T04:58:59.442Z,95.20
2022-09-07T05:01:26.941Z,95.00
2022-09-07T05:03:54.522Z,95.30
2022-09-07T05:06:23.445Z,95.40
2022-09-07T05:08:53.852Z,95.50
2022-09-07T05:11:28.389Z,95.30
2022-09-07T05:14:02.416Z,95.30
2022-09-07T05:16:31.451Z,95.30
2022-09-07T05:19:04.015Z,95.10
2022-09-07T05:21:33.425Z,94.70
2022-09-07T05:24:02.116Z,94.50
2022-09-07T05:26:33.290Z,94.80
2022-09-07T05:31:50.304Z,94.70
2022-09-07T05:34:33.173Z,94.10
2022-09-07T05:37:01.661Z,94.40
2022-09-07T05:39:30.290Z,94.20
2022-09-07T05:41:57.616Z,93.70
2022-09-07T05:47:13.773Z,93.80
2022-09-07T05:49:41.576Z,93.20
2022-09-07T05:52:08.863Z,93.00
2022-09-07T05:54:35.979Z,93.30
2022-09-07T05:57:03.965Z,93.00
2022-09-07T05:59:31.672Z,93.40
2022-09-07T06:01:59.983Z,93.20
2022-09-07T06:04:27.782Z,92.70
2022-09-07T06:12:29.645Z,92.30
2022-09-07T06:14:57.429Z,91.50
2022-09-07T06:17:24.516Z,91.50
2022-09-07T06:19:51.619Z,91.20
2022-09-07T06:22:19.169Z,91.70
2022-09-07T06:24:46.343Z,91.80
2022-09-07T06:27:13.426Z,91.70
2022-09-07T06:29:41.052Z,90.90
2022-09-07T06:34:56.143Z,91.40
2022-09-07T06:37:23.504Z,91.10
2022-09-07T06:39:50.619Z,90.80
2022-09-07T06:42:18.465Z,90.70
2022-09-07T06:44:45.451Z,90.90
2022-09-07T06:47:12.494Z,90.10
2022-09-07T06:49:40.154Z,90.40
2022-09-07T06:52:07.232Z,90.50
2022-09-07T06:57:21.851Z,89.50
2022-09-07T06:59:48.892Z,89.70
2022-09-07T07:02:16.101Z,89.60
2022-09-07T07:04:43.608Z,89.00
2022-09-07T07:07:13.889Z,88.10
2022-09-07T07:09:41.675Z,88.80
2022-09-07T07:12:11.412Z,88.40
2022-09-07T07:14:42.674Z,88.60
2022-09-07T07:17:13.558Z,87.90
2022-09-07T07:19:42.317Z,88.00
2022-09-07T07:22:45.470Z,87.30
2022-09-07T07:25:06.618Z,87.60
2022-09-07T07:27:39.982Z,87.60
2022-09-07T07:30:13.605Z,87.10
2022-09-07T07:32:45.639Z,86.70
2022-09-07T07:35:15.149Z,86.10
2022-09-07T07:37:42.314Z,86.00
2022-09-07T07:42:41.734Z,85.50
2022-09-07T07:47:58.982Z,84.50
2022-09-07T07:50:33.904Z,83.90
2022-09-07T07:55:49.027Z,84.20
2022-09-07T07:58:16.853Z,83.70
2022-09-07T08:00:54.157Z,81.40
2022-09-07T08:03:25.836Z,82.50
2022-09-07T08:05:54.081Z,83.40
2022-09-07T08:08:23.507Z,82.90
2022-09-07T08:10:51.397Z,82.30
2022-09-07T08:13:19.203Z,82.90
2022-09-07T08:15:46.500Z,82.90
2022-09-07T08:18:17.076Z,82.90
2022-09-07T08:20:44.436Z,83.20
2022-09-07T08:23:11.878Z,82.60
2022-09-07T08:25:49.537Z,79.30
2022-09-07T08:28:16.504Z,80.90
2022-09-07T08:30:45.048Z,82.00
2022-09-07T08:33:12.087Z,82.00
2022-09-07T08:35:39.438Z,82.00
2022-09-07T08:38:07.426Z,79.00
2022-09-07T08:40:38.312Z,81.50
2022-09-07T08:43:21.079Z,79.40
2022-09-07T08:46:00.210Z,80.00
2022-09-07T08:48:34.194Z,79.50
2022-09-07T08:51:22.349Z,80.10
2022-09-07T08:53:52.141Z,81.60
2022-09-07T08:56:33.795Z,80.50
2022-09-07T08:59:15.070Z,81.30
2022-09-07T09:02:26.314Z,81.50
2022-09-07T09:04:31.679Z,81.40
2022-09-07T09:07:27.959Z,81.00
2022-09-07T09:10:37.605Z,81.10
2022-09-07T09:13:14.617Z,79.70
2022-09-07T09:16:14.839Z,79.40
2022-09-07T09:19:44.365Z,81.20
2022-09-07T09:22:21.842Z,80.70
2022-09-07T09:25:17.091Z,80.40
2022-09-07T09:27:44.385Z,80.70
2022-09-07T09:30:18.312Z,80.20
2022-09-07T09:32:50.258Z,79.10
2022-09-07T09:35:35.807Z,79.60
2022-09-07T09:38:06.118Z,80.10
2022-09-07T09:40:37.133Z,80.40
2022-09-07T09:43:25.940Z,79.70
2022-09-07T09:46:13.499Z,80.40
2022-09-07T09:48:42.398Z,80.40
2022-09-07T09:55:03.343Z,80.00
2022-09-07T10:04:02.734Z,78.50
2022-09-07T10:06:32.033Z,79.30
2022-09-07T10:09:03.537Z,78.50
2022-09-07T10:12:06.273Z,80.00
2022-09-07T10:14:46.795Z,77.90
2022-09-07T10:17:38.701Z,79.10
2022-09-07T10:20:17.833Z,79.80
2022-09-07T10:22:52.215Z,78.70
2022-09-07T10:25:37.119Z,78.20
2022-09-07T10:28:06.778Z,79.00
2022-09-07T10:30:48.923Z,80.60
2022-09-07T10:33:26.154Z,79.10
2022-09-07T10:36:23.945Z,79.10
2022-09-07T10:39:13.052Z,79.50
2022-09-07T10:42:35.774Z,79.50
2022-09-07T10:45:20.144Z,79.40
2022-09-07T10:48:27.182Z,77.10
2022-09-07T10:51:13.487Z,79.70
2022-09-07T10:54:42.311Z,78.20
2022-09-07T10:57:33.984Z,79.70
2022-09-07T11:00:14.428Z,78.30
2022-09-07T11:03:26.285Z,79.30
2022-09-07T11:06:15.062Z,78.80
2022-09-07T11:09:22.116Z,80.50
2022-09-07T11:12:08.568Z,79.20
2022-09-07T11:14:45.147Z,79.90
2022-09-07T11:17:38.266Z,79.00
2022-09-07T11:20:24.180Z,76.90
2022-09-07T11:23:32.678Z,78.40
2022-09-07T11:26:17.045Z,78.50
2022-09-07T11:31:54.411Z,79.40
2022-09-07T11:34:35.283Z,79.50
2022-09-07T11:37:29.082Z,79.20
2022-09-07T11:40:22.610Z,79.20
2022-09-07T11:43:01.424Z,77.10
2022-09-07T11:45:46.482Z,79.60
2022-09-07T11:48:40.113Z,79.30
2022-09-07T11:51:42.083Z,76.70
2022-09-07T11:54:39.324Z,78.80
2022-09-07T11:57:43.854Z,79.10
2022-09-07T12:00:37.519Z,79.30
2022-09-07T12:03:30.313Z,76.10
2022-09-07T12:06:16.943Z,78.90
2022-09-07T12:09:09.422Z,78.30
2022-09-07T12:11:59.641Z,76.40
2022-09-07T12:14:51.652Z,78.40
2022-09-07T12:17:31.016Z,76.90
2022-09-07T12:20:17.946Z,79.40
2022-09-07T12:23:17.703Z,77.40
2022-09-07T12:25:48.874Z,78.80
2022-09-07T12:28:25.483Z,79.00
2022-09-07T12:31:02.364Z,78.10
2022-09-07T12:33:40.170Z,77.70
2022-09-07T12:36:26.504Z,75.00
2022-09-07T12:39:06.239Z,78.10
2022-09-07T12:41:47.981Z,75.70
2022-09-07T12:44:20.610Z,78.10
2022-09-07T12:46:53.464Z,75.60
2022-09-07T12:49:34.291Z,75.30
2022-09-07T12:52:16.651Z,78.00
2022-09-07T12:55:16.744Z,78.00
2022-09-07T12:58:12.766Z,72.60
2022-09-07T13:01:30.609Z,77.80
2022-09-07T13:04:26.796Z,72.40
2022-09-07T13:07:36.006Z,77.20
2022-09-07T13:10:36.025Z,76.90
2022-09-07T13:16:15.351Z,77.00
2022-09-07T13:18:44.254Z,73.80
2022-09-07T13:21:11.990Z,74.40
2022-09-07T13:27:05.757Z,76.60
2022-09-07T13:29:49.646Z,76.50
2022-09-07T13:35:29.514Z,77.20
2022-09-07T13:38:03.208Z,76.50
2022-09-07T13:40:39.224Z,76.00
2022-09-07T13:43:20.276Z,76.00
2022-09-07T13:45:53.595Z,76.50
2022-09-07T13:48:44.222Z,75.70
2022-09-07T13:51:45.672Z,76.10
2022-09-07T13:54:52.422Z,76.80
2022-09-07T13:57:44.930Z,77.10
2022-09-07T14:00:17.402Z,76.30
2022-09-07T14:02:55.795Z,74.80
2022-09-07T14:05:24.132Z,77.00
2022-09-07T14:07:52.540Z,73.40
2022-09-07T14:10:24.208Z,73.80
2022-09-07T14:13:12.280Z,76.90
2022-09-07T14:15:48.302Z,76.70
2022-09-07T14:18:30.103Z,74.60
2022-09-07T14:20:58.698Z,76.30
2022-09-07T14:23:30.213Z,76.60
2022-09-07T14:26:21.976Z,76.40
2022-09-07T14:28:52.224Z,76.80
2022-09-07T14:31:22.280Z,74.00
2022-09-07T14:33:53.766Z,77.10
2022-09-07T14:36:44.618Z,74.50
2022-09-07T14:39:17.255Z,76.60
2022-09-07T14:41:46.044Z,75.10
2022-09-07T14:44:40.236Z,77.50
2022-09-07T14:47:21.523Z,76.00
2022-09-07T14:49:53.289Z,78.40
2022-09-07T14:52:35.762Z,77.10
2022-09-07T14:55:54.131Z,79.80
2022-09-07T14:58:24.597Z,79.40
2022-09-07T15:04:01.866Z,77.20
2022-09-07T15:09:38.233Z,79.10
2022-09-07T15:12:27.229Z,80.20
2022-09-07T15:15:21.413Z,78.10
2022-09-07T15:17:48.914Z,80.00
2022-09-07T15:20:44.314Z,79.80
2022-09-07T15:23:17.783Z,79.80
2022-09-07T15:25:53.626Z,80.50
2022-09-07T15:34:17.546Z,80.80
2022-09-07T15:36:52.227Z,81.10
2022-09-07T15:39:27.959Z,82.00
2022-09-07T15:41:56.009Z,81.60
2022-09-07T15:44:26.290Z,80.40
2022-09-07T15:49:50.239Z,80.60
2022-09-07T15:52:18.206Z,82.20
2022-09-07T15:54:45.697Z,79.90
2022-09-07T16:00:00.458Z,81.50
2022-09-07T16:05:30.923Z,81.60
2022-09-07T16:11:04.705Z,83.10
2022-09-07T16:13:32.827Z,82.10
2022-09-07T16:16:00.601Z,82.40
2022-09-07T16:18:31.227Z,81.70
2022-09-07T16:21:11.813Z,82.70
2022-09-07T16:23:47.176Z,82.80
2022-09-07T16:26:16.694Z,82.10
2022-09-07T16:28:47.393Z,81.80
2022-09-07T16:31:26.596Z,81.30
2022-09-07T16:33:54.820Z,82.80
2022-09-07T16:36:25.348Z,82.10
2022-09-07T16:38:58.968Z,83.30
2022-09-07T16:41:31.609Z,82.80
2022-09-07T16:43:59.201Z,81.90
2022-09-07T16:46:30.654Z,82.20
2022-09-07T16:48:58.429Z,81.70
2022-09-07T16:51:25.563Z,81.50
2022-09-07T16:53:56.291Z,81.30
2022-09-07T16:56:27.247Z,81.50
2022-09-07T16:58:58.451Z,81.50
2022-09-07T17:01:34.696Z,81.60
2022-09-07T17:04:05.545Z,81.80
2022-09-07T17:06:35.448Z,81.90
2022-09-07T17:09:02.650Z,82.00
2022-09-07T17:11:33.518Z,82.10
2022-09-07T17:14:01.903Z,82.20
2022-09-07T17:16:33.515Z,82.30
2022-09-07T17:21:51.763Z,82.50
2022-09-07T17:24:19.673Z,82.70
2022-09-07T17:26:46.949Z,82.80
2022-09-07T17:29:14.937Z,82.90
2022-09-07T17:34:30.591Z,83.20
2022-09-07T17:37:00.618Z,83.40
2022-09-07T17:39:28.851Z,83.60
2022-09-07T17:41:56.707Z,83.80
2022-09-07T17:44:23.830Z,83.90
2022-09-07T17:46:51.741Z,84.00
2022-09-07T17:49:19.441Z,84.10
2022-09-07T17:51:46.823Z,84.20
2022-09-07T17:54:17.295Z,84.50
2022-09-07T17:56:45.981Z,84.50
2022-09-07T18:02:01.323Z,84.70
2022-09-07T18:04:28.943Z,85.00
2022-09-07T18:06:56.287Z,85.10
2022-09-07T18:09:24.074Z,85.10
2022-09-07T18:11:51.284Z,85.40
2022-09-07T18:14:19.707Z,85.40
2022-09-07T18:16:50.122Z,85.50
2022-09-07T18:19:18.833Z,85.70
2022-09-07T18:21:47.911Z,85.70
2022-09-07T18:24:20.112Z,85.90
2022-09-07T18:26:50.701Z,86.20
2022-09-07T18:29:32.295Z,86.10
2022-09-07T18:32:08.008Z,86.20
2022-09-07T18:34:40.582Z,86.30
2022-09-07T18:37:08.928Z,86.50
2022-09-07T18:39:36.691Z,86.70
2022-09-07T18:42:05.640Z,86.60
2022-09-07T18:47:28.423Z,86.90
2022-09-07T18:49:57.510Z,87.10
2022-09-07T18:55:13.111Z,87.20
2022-09-07T18:57:40.518Z,87.30
2022-09-07T19:00:11.098Z,87.10
2022-09-07T19:02:38.370Z,87.50
2022-09-07T19:07:53.432Z,87.60
2022-09-07T19:10:20.959Z,87.70
2022-09-07T19:12:48.205Z,88.00
2022-09-07T19:15:15.615Z,88.00
2022-09-07T19:17:43.497Z,88.20
2022-09-07T19:20:10.735Z,88.30
2022-09-07T19:22:38.934Z,88.30
2022-09-07T19:25:06.724Z,88.50
2022-09-07T19:27:34.036Z,88.60
2022-09-07T19:30:03.436Z,89.00
2022-09-07T19:32:31.090Z,88.90
2022-09-07T19:34:58.182Z,89.20
2022-09-07T19:37:25.755Z,89.30
2022-09-07T19:39:56.856Z,89.40
2022-09-07T19:42:26.736Z,89.50
2022-09-07T19:44:54.281Z,89.40
2022-09-07T19:47:23.836Z,89.60
2022-09-07T19:49:52.195Z,89.60
2022-09-07T19:52:19.498Z,89.90
2022-09-07T19:54:47.192Z,90.00
2022-09-07T19:57:14.471Z,90.20
2022-09-07T19:59:41.553Z,90.30
2022-09-07T20:02:10.500Z,90.30
2022-09-07T20:04:37.506Z,90.40
2022-09-07T20:07:06.603Z,90.40
2022-09-07T20:09:34.190Z,90.40
2022-09-07T20:12:03.796Z,90.40
2022-09-07T20:14:31.359Z,90.40
2022-09-07T20:17:00.005Z,90.40
2022-09-07T20:19:27.260Z,90.40
2022-09-07T20:21:55.764Z,90.50
2022-09-07T20:24:23.676Z,90.50
2022-09-07T20:26:50.815Z,90.60
2022-09-07T20:29:33.543Z,90.60
2022-09-07T20:32:03.570Z,90.60
2022-09-07T20:34:30.769Z,90.70
2022-09-07T20:36:58.611Z,90.70
2022-09-07T20:39:26.093Z,90.80
2022-09-07T20:41:53.320Z,90.80
2022-09-07T20:44:20.632Z,90.90
2022-09-07T20:46:49.087Z,90.90
2022-09-07T20:49:16.352Z,91.00
2022-09-07T20:51:43.419Z,91.00
2022-09-07T20:54:12.911Z,91.00
2022-09-07T20:56:40.331Z,91.10
2022-09-07T20:59:07.924Z,91.10
2022-09-07T21:01:35.524Z,91.20
2022-09-07T21:04:04.114Z,91.30
2022-09-07T21:06:32.917Z,91.30
2022-09-07T21:09:00.690Z,91.40
2022-09-07T21:11:35.670Z,91.50
2022-09-07T21:14:07.388Z,91.50
2022-09-07T21:16:36.239Z,91.50
2022-09-07T21:19:07.869Z,91.60
2022-09-07T21:21:39.874Z,91.60
2022-09-07T21:24:18.955Z,91.70
2022-09-07T21:26:48.133Z,91.70
2022-09-07T21:29:23.611Z,91.70
2022-09-07T21:31:53.624Z,91.70
2022-09-07T21:34:22.007Z,91.80
2022-09-07T21:36:49.590Z,91.90
2022-09-07T21:39:17.427Z,91.80
2022-09-07T21:41:45.833Z,92.00
2022-09-07T21:44:16.090Z,92.00
2022-09-07T21:46:44.302Z,92.00
2022-09-07T21:49:12.524Z,92.00
2022-09-07T21:51:39.818Z,92.00
2022-09-07T21:54:07.427Z,92.00
2022-09-07T21:56:35.042Z,92.00
2022-09-07T21:59:02.674Z,92.00
2022-09-07T22:01:31.820Z,92.00
2022-09-07T22:04:03.422Z,92.20
2022-09-07T22:06:32.479Z,92.00
2022-09-07T22:09:00.889Z,92.00
2022-09-07T22:11:30.499Z,92.10
2022-09-07T22:14:03.040Z,92.10
2022-09-07T22:16:34.427Z,92.10
2022-09-07T22:19:04.546Z,92.10
2022-09-07T22:21:33.456Z,92.10
2022-09-07T22:24:05.118Z,92.10
2022-09-07T22:26:39.492Z,92.20
2022-09-07T22:29:08.949Z,92.20
2022-09-07T22:31:37.807Z,92.30
2022-09-07T22:35:22.256Z,92.30
2022-09-07T22:37:58.450Z,92.30
2022-09-07T22:40:26.051Z,92.30
2022-09-07T22:42:53.145Z,92.40
2022-09-07T22:45:20.459Z,92.40
2022-09-07T22:47:47.530Z,92.50
2022-09-07T22:50:15.094Z,92.60
2022-09-07T22:52:42.612Z,92.60
2022-09-07T22:55:10.142Z,92.70
2022-09-07T22:57:37.420Z,92.80
2022-09-07T23:00:07.341Z,92.80
2022-09-07T23:02:34.618Z,92.80
2022-09-07T23:05:02.584Z,92.80
2022-09-07T23:07:30.015Z,92.80
2022-09-07T23:09:57.446Z,93.10
2022-09-07T23:12:24.366Z,92.80
2022-09-07T23:14:54.205Z,92.80
2022-09-07T23:17:21.328Z,92.90
2022-09-07T23:19:48.320Z,92.90
2022-09-07T23:22:16.163Z,92.90
2022-09-07T23:24:43.185Z,92.90
2022-09-07T23:27:10.263Z,92.90
2022-09-07T23:29:37.446Z,92.90
2022-09-07T23:32:05.112Z,92.90
2022-09-07T23:34:32.241Z,92.90
2022-09-07T23:37:00.624Z,92.90
2022-09-07T23:39:32.291Z,93.00
2022-09-07T23:41:59.588Z,93.00
2022-09-07T23:44:27.101Z,93.00
2022-09-07T23:46:54.271Z,93.10
2022-09-07T23:49:21.305Z,93.10
2022-09-07T23:51:48.750Z,93.20
2022-09-07T23:54:15.674Z,93.20
2022-09-07T23:56:42.701Z,93.20
2022-09-07T23:59:10.322Z,93.20
